Colonia Caroya, Argentina
Current Conditions -  °F | °C
As of 1:00 AM on Friday 19 Dec 2014 (Local Time) from SACO Reporting Station
Clear Clear  
Wind Chill: 19°   Ceiling: Unl
Heat Index: 19°   Visibility: 6mi
Dew Point: 15°   Wind: 7mph
Humidity: 78%   Direction: 360°N
Pressure: 29.88"   Gusts: NA
Location:  31.03°S, 64.08°W
Report Text: SACO 190400Z 36006KT CAVOK 19/15 Q1012
Loading
Personal Weather Stations






























Interactive Weather Map New forecast layout! Learn more

10-Day Weather Forecast

Advertisements
Track Severe Weather on mobile